Time;durP1;ratioP1;P1;durP2;ratioP2;P2;SDS_P1;SDS_P2;PMS_P1;PMS_P2;Temp;Humidity;BMP_temperature;BMP_pressure;BME280_temperature;BME280_humidity;BME280_pressure;Samples;Min_cycle;Max_cycle;Signal;HPM_P1;HPM_P2
2021/12/31 00:01:08;;;;;;;3.05;1.52;;;14.00;99.90;;;;;;5081415;28;20051;-58
2021/12/31 00:03:35;;;;;;;4.32;1.48;;;14.00;99.90;;;;;;5079539;28;20048;-54
2021/12/31 00:06:02;;;;;;;4.25;1.40;;;14.00;99.90;;;;;;5079718;28;20510;-56
2021/12/31 00:08:29;;;;;;;3.88;1.20;;;14.00;99.90;;;;;;5080222;28;20068;-56
2021/12/31 00:10:59;;;;;;;3.28;1.38;;;14.00;99.90;;;;;;5080772;28;20127;-55
2021/12/31 00:13:27;;;;;;;2.97;1.73;;;14.00;99.90;;;;;;5078036;28;20816;-54
2021/12/31 00:15:54;;;;;;;3.83;1.90;;;14.00;99.90;;;;;;5076700;28;20437;-56
2021/12/31 00:18:21;;;;;;;4.03;1.52;;;14.00;99.90;;;;;;5079136;28;20052;-56
2021/12/31 00:20:48;;;;;;;3.00;1.58;;;14.00;99.90;;;;;;5079524;28;20075;-55
2021/12/31 00:23:20;;;;;;;4.35;1.48;;;13.90;99.90;;;;;;5079968;28;20048;-51
2021/12/31 00:25:47;;;;;;;5.88;1.65;;;13.90;99.90;;;;;;5077235;28;20131;-55
2021/12/31 00:28:13;;;;;;;4.32;1.40;;;13.90;99.90;;;;;;5078167;28;20511;-58
2021/12/31 00:30:40;;;;;;;3.35;1.90;;;13.90;99.90;;;;;;5079267;28;20399;-55
2021/12/31 00:33:08;;;;;;;2.75;1.27;;;13.80;99.90;;;;;;5078383;28;20380;-57
2021/12/31 00:35:36;;;;;;;3.13;1.80;;;13.90;99.90;;;;;;5080002;28;20121;-56
2021/12/31 00:38:03;;;;;;;5.45;1.88;;;13.80;99.90;;;;;;5079778;28;20048;-56
2021/12/31 00:40:30;;;;;;;4.00;1.40;;;13.80;99.90;;;;;;5076563;28;20679;-56
2021/12/31 00:42:57;;;;;;;3.80;1.52;;;13.80;99.90;;;;;;5074947;28;20068;-55
2021/12/31 00:45:26;;;;;;;4.63;1.50;;;13.80;99.90;;;;;;5078316;28;20073;-57
2021/12/31 00:47:54;;;;;;;4.57;1.67;;;13.80;99.90;;;;;;5078006;28;20039;-56
2021/12/31 00:50:20;;;;;;;4.53;1.60;;;13.80;99.90;;;;;;5078498;28;20076;-56
2021/12/31 00:52:47;;;;;;;4.72;2.00;;;13.70;99.90;;;;;;5079375;28;20146;-56
2021/12/31 00:55:14;;;;;;;3.90;1.75;;;13.80;99.90;;;;;;5079458;28;20083;-56
2021/12/31 00:57:41;;;;;;;4.88;2.17;;;13.80;99.90;;;;;;5079724;28;20564;-55
2021/12/31 01:00:09;;;;;;;3.92;1.52;;;13.70;99.90;;;;;;5078724;28;20052;-57
2021/12/31 01:02:36;;;;;;;3.22;1.50;;;13.70;99.90;;;;;;5078663;28;20048;-55
2021/12/31 01:05:03;;;;;;;2.90;1.52;;;13.70;99.90;;;;;;5078173;28;20040;-53
2021/12/31 01:07:31;;;;;;;4.47;1.75;;;13.60;99.90;;;;;;5079413;28;20075;-57
2021/12/31 01:10:00;;;;;;;5.03;1.77;;;13.60;99.90;;;;;;5080022;28;20082;-56
2021/12/31 01:12:26;;;;;;;5.50;1.67;;;13.60;99.90;;;;;;5079748;28;20071;-56
2021/12/31 01:14:58;;;;;;;2.63;1.40;;;13.60;99.90;;;;;;5081164;28;20147;-57
2021/12/31 01:17:43;;;;;;;6.00;2.38;;;13.60;99.90;;;;;;5082011;28;20082;-56
2021/12/31 01:20:11;;;;;;;4.05;1.42;;;13.60;99.90;;;;;;5079828;28;20057;-57
2021/12/31 01:22:38;;;;;;;4.53;2.05;;;13.50;99.90;;;;;;5082556;28;20101;-56
2021/12/31 01:25:05;;;;;;;2.60;1.52;;;13.50;99.90;;;;;;5081528;28;20672;-57
2021/12/31 01:27:32;;;;;;;6.78;1.88;;;13.50;99.90;;;;;;5080681;28;20151;-55
2021/12/31 01:29:59;;;;;;;5.32;1.95;;;13.50;99.90;;;;;;5080830;28;20455;-55
2021/12/31 01:32:26;;;;;;;4.53;1.88;;;13.50;99.90;;;;;;5085113;28;20044;-57
2021/12/31 01:34:53;;;;;;;3.47;1.50;;;13.50;99.90;;;;;;5086336;28;20071;-54
2021/12/31 01:37:20;;;;;;;4.55;1.50;;;13.50;99.90;;;;;;5086992;28;20139;-57
2021/12/31 01:39:46;;;;;;;4.05;1.80;;;13.40;99.90;;;;;;5085189;28;20134;-54
2021/12/31 01:42:14;;;;;;;3.83;1.70;;;13.40;99.90;;;;;;5083135;28;20163;-56
2021/12/31 01:44:45;;;;;;;5.93;1.60;;;13.40;99.90;;;;;;5083470;28;20048;-56
2021/12/31 01:47:15;;;;;;;4.38;2.25;;;13.50;99.90;;;;;;5085494;28;20040;-55
2021/12/31 01:49:54;;;;;;;6.15;2.22;;;13.50;99.90;;;;;;5086600;28;20105;-57
2021/12/31 01:52:21;;;;;;;5.45;1.80;;;13.50;99.90;;;;;;5085506;28;20139;-57
2021/12/31 01:54:47;;;;;;;4.88;2.17;;;13.50;99.90;;;;;;5084801;28;20135;-57
2021/12/31 01:57:14;;;;;;;6.10;1.73;;;13.50;99.90;;;;;;5084178;28;20138;-57
2021/12/31 01:59:41;;;;;;;5.55;1.95;;;13.50;99.90;;;;;;5083251;28;20560;-56
2021/12/31 02:02:08;;;;;;;6.97;1.90;;;13.50;99.90;;;;;;5083826;28;20127;-55
2021/12/31 02:04:37;;;;;;;5.35;1.88;;;13.50;99.90;;;;;;5086003;28;20048;-55
2021/12/31 02:07:04;;;;;;;5.28;1.80;;;13.50;99.90;;;;;;5084612;28;20076;-56
2021/12/31 02:09:35;;;;;;;5.95;2.55;;;13.50;99.90;;;;;;5086080;28;20044;-54
2021/12/31 02:12:02;;;;;;;6.38;2.10;;;13.50;99.90;;;;;;5085118;28;20127;-57
2021/12/31 02:14:28;;;;;;;4.35;2.10;;;13.50;99.90;;;;;;5085095;28;20071;-56
2021/12/31 02:16:55;;;;;;;4.00;1.80;;;13.60;99.90;;;;;;5063672;28;20715;-57
2021/12/31 02:19:28;;;;;;;3.78;1.63;;;13.50;99.90;;;;;;5085962;28;20076;-56
2021/12/31 02:21:56;;;;;;;9.10;2.40;;;13.50;99.90;;;;;;5086034;28;20044;-53
2021/12/31 02:24:23;;;;;;;5.82;1.98;;;13.50;99.90;;;;;;5085111;28;20055;-55
2021/12/31 02:26:51;;;;;;;4.53;2.00;;;13.50;99.90;;;;;;5085414;28;20044;-56
2021/12/31 02:29:18;;;;;;;5.40;2.40;;;13.50;99.90;;;;;;5084796;28;20147;-56
2021/12/31 02:31:45;;;;;;;4.32;1.67;;;13.50;99.90;;;;;;5087983;28;20063;-56
2021/12/31 02:34:12;;;;;;;5.68;1.95;;;13.50;99.90;;;;;;5083256;28;20105;-56
2021/12/31 02:36:38;;;;;;;4.47;1.88;;;13.50;99.90;;;;;;5086149;28;20160;-57
2021/12/31 02:39:05;;;;;;;6.35;1.95;;;13.50;99.90;;;;;;5088196;28;20138;-55
2021/12/31 02:41:32;;;;;;;6.45;2.10;;;13.50;99.90;;;;;;5089185;28;20052;-55
2021/12/31 02:43:59;;;;;;;4.63;2.22;;;13.50;99.90;;;;;;5086901;28;20123;-57
2021/12/31 02:46:25;;;;;;;4.10;2.15;;;13.50;99.90;;;;;;5087812;28;20372;-56
2021/12/31 02:48:56;;;;;;;5.20;1.58;;;13.50;99.90;;;;;;5088206;28;20052;-58
2021/12/31 02:51:24;;;;;;;4.47;1.85;;;13.50;99.90;;;;;;5087401;28;20067;-55
2021/12/31 02:53:53;;;;;;;6.00;2.20;;;13.40;99.90;;;;;;5087542;28;20147;-57
2021/12/31 02:56:19;;;;;;;5.03;1.98;;;13.40;99.90;;;;;;5087769;28;20123;-56
2021/12/31 02:58:46;;;;;;;4.32;2.05;;;13.50;99.90;;;;;;5082209;28;20063;-55
2021/12/31 03:01:13;;;;;;;3.78;2.20;;;13.50;99.90;;;;;;5086842;28;20083;-57
2021/12/31 03:03:40;;;;;;;4.68;1.83;;;13.50;99.90;;;;;;5087362;28;20399;-54
2021/12/31 03:06:08;;;;;;;4.30;1.98;;;13.40;99.90;;;;;;5087616;28;20583;-57
2021/12/31 03:08:43;;;;;;;5.03;2.15;;;13.50;99.90;;;;;;5064601;28;20044;-55
2021/12/31 03:11:10;;;;;;;3.67;1.80;;;13.40;99.90;;;;;;5081960;28;20040;-56
2021/12/31 03:13:38;;;;;;;4.95;1.60;;;13.50;99.90;;;;;;5067862;28;20055;-57
2021/12/31 03:16:06;;;;;;;4.00;1.63;;;13.40;99.90;;;;;;5068788;28;20090;-57
2021/12/31 03:18:33;;;;;;;3.97;1.42;;;13.50;99.90;;;;;;5085853;28;20486;-57
2021/12/31 03:21:05;;;;;;;5.55;1.73;;;13.40;99.90;;;;;;5083097;28;20127;-57
2021/12/31 03:23:32;;;;;;;4.90;2.00;;;13.50;99.90;;;;;;5086987;28;20085;-57
2021/12/31 03:25:59;;;;;;;3.70;1.73;;;13.50;99.90;;;;;;5086864;28;20146;-57
2021/12/31 03:28:26;;;;;;;4.72;2.10;;;13.50;99.90;;;;;;5085583;28;20138;-57
2021/12/31 03:30:53;;;;;;;3.17;1.52;;;13.40;99.90;;;;;;5086962;28;20098;-56
2021/12/31 03:33:20;;;;;;;6.00;2.92;;;13.40;99.90;;;;;;5086787;28;20411;-55
2021/12/31 03:35:47;;;;;;;4.43;1.98;;;13.40;99.90;;;;;;5087168;28;20071;-56
2021/12/31 03:38:14;;;;;;;7.32;2.25;;;13.40;99.90;;;;;;5087555;28;20044;-55
2021/12/31 03:40:40;;;;;;;4.78;1.98;;;13.40;99.90;;;;;;5086324;28;20090;-55
2021/12/31 03:43:08;;;;;;;4.43;2.25;;;13.40;99.90;;;;;;5086018;28;20079;-57
2021/12/31 03:45:36;;;;;;;3.33;1.80;;;13.40;99.90;;;;;;5085667;28;20131;-54
2021/12/31 03:48:04;;;;;;;6.82;2.25;;;13.30;99.90;;;;;;5086072;28;20464;-57
2021/12/31 03:50:30;;;;;;;6.38;2.25;;;13.30;99.90;;;;;;5086399;28;20093;-56
2021/12/31 03:52:57;;;;;;;3.63;1.80;;;13.40;99.90;;;;;;5086687;28;20167;-55
2021/12/31 03:55:24;;;;;;;5.85;1.90;;;13.40;99.90;;;;;;5086079;28;20143;-57
2021/12/31 03:57:51;;;;;;;10.88;2.83;;;13.40;99.90;;;;;;5086598;28;20040;-56
2021/12/31 04:00:18;;;;;;;6.80;2.03;;;13.40;99.90;;;;;;5085319;28;20142;-58
2021/12/31 04:02:45;;;;;;;6.15;2.28;;;13.40;99.90;;;;;;5085581;28;20067;-57
2021/12/31 04:05:12;;;;;;;4.60;1.60;;;13.40;99.90;;;;;;5086122;28;20159;-57
2021/12/31 04:07:39;;;;;;;7.93;2.65;;;13.40;99.90;;;;;;5086348;28;20150;-56
2021/12/31 04:10:05;;;;;;;7.05;2.67;;;13.40;99.90;;;;;;5082549;28;20075;-56
2021/12/31 04:12:32;;;;;;;7.85;2.60;;;13.40;99.90;;;;;;5086168;28;20131;-56
2021/12/31 04:14:59;;;;;;;4.75;2.20;;;13.40;99.90;;;;;;5085072;28;20537;-56
2021/12/31 04:17:25;;;;;;;6.57;2.50;;;13.40;99.90;;;;;;5086006;28;20065;-56
2021/12/31 04:19:55;;;;;;;5.47;2.33;;;13.40;99.90;;;;;;5086170;28;20181;-57
2021/12/31 04:22:24;;;;;;;4.53;2.40;;;13.40;99.90;;;;;;5086453;28;20082;-55
2021/12/31 04:24:52;;;;;;;5.78;2.25;;;13.40;99.90;;;;;;5086060;28;20048;-59
2021/12/31 04:27:20;;;;;;;7.15;2.55;;;13.40;99.90;;;;;;5085463;28;20071;-55
2021/12/31 04:29:51;;;;;;;4.75;2.00;;;13.40;99.90;;;;;;5084822;28;20131;-61
2021/12/31 04:32:22;;;;;;;5.82;2.35;;;13.40;99.90;;;;;;5081193;28;20135;-56
2021/12/31 04:34:49;;;;;;;10.25;2.85;;;13.40;99.90;;;;;;5084537;28;20079;-57
2021/12/31 04:37:16;;;;;;;5.07;2.13;;;13.40;99.90;;;;;;5086026;28;20789;-57
2021/12/31 04:39:42;;;;;;;5.38;2.08;;;13.40;99.90;;;;;;5085303;28;20499;-58
2021/12/31 04:42:09;;;;;;;4.65;2.03;;;13.40;99.90;;;;;;5085293;28;20094;-57
2021/12/31 04:44:36;;;;;;;5.18;1.92;;;13.40;99.90;;;;;;5085270;28;20060;-56
2021/12/31 04:47:03;;;;;;;9.93;2.63;;;13.30;99.90;;;;;;5083832;28;20122;-55
2021/12/31 04:49:30;;;;;;;6.80;2.72;;;13.30;99.90;;;;;;5085907;28;20073;-56
2021/12/31 04:51:57;;;;;;;6.22;2.75;;;13.40;99.90;;;;;;5085909;28;20124;-57
2021/12/31 04:54:24;;;;;;;5.72;2.25;;;13.40;99.90;;;;;;5085289;28;20109;-56
2021/12/31 04:56:54;;;;;;;6.65;2.55;;;13.40;99.90;;;;;;5085419;28;20447;-58
2021/12/31 04:59:21;;;;;;;6.95;3.30;;;13.30;99.90;;;;;;5084776;28;20076;-55
2021/12/31 05:01:53;;;;;;;8.13;2.92;;;13.40;99.90;;;;;;5085229;28;20047;-57
2021/12/31 05:04:20;;;;;;;7.30;2.28;;;13.40;99.90;;;;;;5083737;28;20075;-56
2021/12/31 05:06:49;;;;;;;5.97;2.20;;;13.40;99.90;;;;;;5084613;28;20146;-57
2021/12/31 05:09:16;;;;;;;5.72;2.45;;;13.40;99.90;;;;;;5082379;28;20499;-57
2021/12/31 05:11:43;;;;;;;7.95;2.90;;;13.40;99.90;;;;;;5085104;28;20085;-57
2021/12/31 05:14:10;;;;;;;8.10;2.78;;;13.30;99.90;;;;;;5081520;28;20109;-56
2021/12/31 05:16:37;;;;;;;8.98;3.45;;;13.30;99.90;;;;;;5085155;28;20068;-57
2021/12/31 05:19:04;;;;;;;6.55;2.85;;;13.30;99.90;;;;;;5085541;28;20036;-57
2021/12/31 05:21:31;;;;;;;4.03;2.10;;;13.40;99.90;;;;;;5085754;28;20048;-56
2021/12/31 05:23:58;;;;;;;8.18;2.63;;;13.40;99.90;;;;;;5081269;28;20044;-56
2021/12/31 05:26:25;;;;;;;5.10;2.17;;;13.30;99.90;;;;;;5085161;28;20080;-57
2021/12/31 05:28:51;;;;;;;5.55;2.17;;;13.30;99.90;;;;;;5083523;28;20130;-53
2021/12/31 05:31:18;;;;;;;6.85;2.80;;;13.30;99.90;;;;;;5085425;28;20081;-55
2021/12/31 05:33:45;;;;;;;5.45;2.38;;;13.30;99.90;;;;;;5084669;28;20569;-57
2021/12/31 05:36:13;;;;;;;6.65;2.53;;;13.30;99.90;;;;;;5084748;28;20171;-55
2021/12/31 05:38:39;;;;;;;8.82;2.08;;;13.30;99.90;;;;;;5084630;28;20791;-55
2021/12/31 05:41:06;;;;;;;8.30;2.25;;;13.30;99.90;;;;;;5085052;28;20056;-55
2021/12/31 05:43:33;;;;;;;11.65;3.03;;;13.30;99.90;;;;;;5065414;28;20101;-54
2021/12/31 05:46:00;;;;;;;7.50;2.72;;;13.30;99.90;;;;;;5084545;28;20080;-56
2021/12/31 05:48:29;;;;;;;6.32;2.55;;;13.30;99.90;;;;;;5077994;28;20109;-58
2021/12/31 05:50:56;;;;;;;5.88;2.20;;;13.30;99.90;;;;;;5083504;28;20507;-57
2021/12/31 05:53:23;;;;;;;6.05;2.08;;;13.30;99.90;;;;;;5081546;28;20079;-57
2021/12/31 05:55:50;;;;;;;4.75;2.40;;;13.30;99.90;;;;;;5083098;28;20131;-56
2021/12/31 05:58:17;;;;;;;6.20;2.47;;;13.30;99.90;;;;;;5080949;28;20469;-57
2021/12/31 06:00:44;;;;;;;5.32;2.42;;;13.30;99.90;;;;;;5082347;28;20432;-56
2021/12/31 06:03:10;;;;;;;8.80;3.30;;;13.30;99.90;;;;;;5075635;28;20037;-57
2021/12/31 06:05:37;;;;;;;5.43;2.22;;;13.30;99.90;;;;;;5079093;28;20044;-55
2021/12/31 06:08:04;;;;;;;5.38;2.42;;;13.30;99.90;;;;;;5079484;28;20131;-56
2021/12/31 06:10:32;;;;;;;9.35;3.08;;;13.30;99.90;;;;;;5080563;28;20079;-55
2021/12/31 06:13:00;;;;;;;5.50;2.28;;;13.30;99.90;;;;;;5077531;28;20072;-55
2021/12/31 06:15:28;;;;;;;6.68;2.63;;;13.30;99.90;;;;;;5078644;28;20564;-55
2021/12/31 06:17:54;;;;;;;7.38;2.70;;;13.30;99.90;;;;;;5077679;28;20045;-54
2021/12/31 06:20:21;;;;;;;8.43;3.78;;;13.30;99.90;;;;;;5081275;28;20139;-57
2021/12/31 06:22:48;;;;;;;5.35;2.20;;;13.30;99.90;;;;;;5082962;28;20124;-55
2021/12/31 06:25:15;;;;;;;6.97;2.42;;;13.30;99.90;;;;;;5082342;28;20838;-56
2021/12/31 06:27:41;;;;;;;5.78;2.70;;;13.30;99.90;;;;;;5082493;28;20165;-56
2021/12/31 06:30:09;;;;;;;5.97;2.60;;;13.30;99.90;;;;;;5083480;28;20647;-56
2021/12/31 06:32:36;;;;;;;6.45;2.53;;;13.30;99.90;;;;;;5085510;28;20213;-56
2021/12/31 06:35:02;;;;;;;7.90;2.75;;;13.30;99.90;;;;;;5085441;28;20131;-56
2021/12/31 06:37:29;;;;;;;8.75;3.10;;;13.30;99.90;;;;;;5085274;28;20117;-55
2021/12/31 06:40:01;;;;;;;6.93;2.80;;;13.20;99.90;;;;;;5080459;28;20124;-53
2021/12/31 06:42:27;;;;;;;11.35;4.35;;;13.30;99.90;;;;;;5082059;28;20135;-52
2021/12/31 06:44:54;;;;;;;10.98;3.63;;;13.30;99.90;;;;;;5082875;28;20040;-57
2021/12/31 06:47:21;;;;;;;6.40;2.80;;;13.30;99.90;;;;;;5081445;28;20067;-56
2021/12/31 06:49:48;;;;;;;7.15;2.88;;;13.30;99.90;;;;;;5081695;28;20135;-56
2021/12/31 06:52:15;;;;;;;7.53;3.15;;;13.40;99.90;;;;;;5081427;28;20152;-56
2021/12/31 06:54:41;;;;;;;7.68;3.15;;;13.40;99.90;;;;;;5081380;28;20078;-56
2021/12/31 06:57:08;;;;;;;7.25;2.63;;;13.40;99.90;;;;;;5084257;28;20044;-55
2021/12/31 06:59:35;;;;;;;6.00;2.50;;;13.40;99.90;;;;;;5084193;28;20086;-55
2021/12/31 07:02:02;;;;;;;9.27;2.95;;;13.40;99.90;;;;;;5080009;28;20541;-56
2021/12/31 07:04:29;;;;;;;8.20;2.65;;;13.40;99.90;;;;;;5081673;28;20047;-56
2021/12/31 07:06:56;;;;;;;7.88;2.63;;;13.40;99.90;;;;;;5082700;28;20183;-57
2021/12/31 07:09:29;;;;;;;6.93;3.45;;;13.40;99.90;;;;;;5081745;28;20543;-55
2021/12/31 07:11:56;;;;;;;7.30;2.50;;;13.40;99.90;;;;;;5084383;28;20155;-55
2021/12/31 07:14:22;;;;;;;9.23;2.65;;;13.40;99.90;;;;;;5065989;28;20135;-57
2021/12/31 07:16:50;;;;;;;6.43;2.90;;;13.40;99.90;;;;;;5084139;28;20505;-53
2021/12/31 07:19:18;;;;;;;6.13;2.55;;;13.40;99.90;;;;;;5085079;28;20363;-56
2021/12/31 07:21:45;;;;;;;5.40;2.33;;;13.40;99.90;;;;;;5082903;28;20052;-55
2021/12/31 07:24:11;;;;;;;7.72;3.30;;;13.30;99.90;;;;;;5080397;28;20550;-53
2021/12/31 07:26:38;;;;;;;7.57;2.20;;;13.30;99.90;;;;;;5082618;28;20135;-54
2021/12/31 07:29:05;;;;;;;9.82;3.25;;;13.30;99.90;;;;;;5082935;28;20040;-55
2021/12/31 07:31:32;;;;;;;7.82;2.20;;;13.30;99.90;;;;;;5082583;28;20074;-55
2021/12/31 07:33:58;;;;;;;9.15;3.03;;;13.30;99.90;;;;;;5083905;28;20063;-56
2021/12/31 07:36:27;;;;;;;8.20;3.33;;;13.30;99.90;;;;;;5084292;28;20048;-52
2021/12/31 07:39:13;;;;;;;8.80;2.70;;;13.30;99.90;;;;;;5083722;28;20123;-56
2021/12/31 07:41:40;;;;;;;8.60;2.75;;;13.30;99.90;;;;;;5081110;28;20082;-55
2021/12/31 07:44:07;;;;;;;7.55;2.70;;;13.40;99.90;;;;;;5083171;28;20048;-55
2021/12/31 07:46:33;;;;;;;9.50;2.33;;;13.40;99.90;;;;;;5083609;28;20504;-54
2021/12/31 07:49:03;;;;;;;8.38;3.05;;;13.40;99.90;;;;;;5083945;28;20051;-57
2021/12/31 07:51:29;;;;;;;5.75;2.30;;;13.40;99.90;;;;;;5081806;28;20558;-55
2021/12/31 07:53:57;;;;;;;8.48;2.78;;;13.40;99.90;;;;;;5083289;28;20048;-56
2021/12/31 07:56:24;;;;;;;8.50;2.83;;;13.40;99.90;;;;;;5083033;28;20044;-56
2021/12/31 07:58:51;;;;;;;7.25;3.58;;;13.40;99.90;;;;;;5080697;28;20605;-56
2021/12/31 08:01:18;;;;;;;7.53;2.72;;;13.40;99.90;;;;;;5081226;28;20159;-56
2021/12/31 08:03:44;;;;;;;5.57;2.60;;;13.30;99.90;;;;;;5080137;28;20056;-56
2021/12/31 08:06:11;;;;;;;7.68;2.92;;;13.30;99.90;;;;;;5079931;28;20052;-57
2021/12/31 08:08:38;;;;;;;7.95;2.63;;;13.10;99.90;;;;;;5082930;28;20072;-55
2021/12/31 08:11:05;;;;;;;7.45;2.70;;;13.00;99.90;;;;;;5083443;28;20056;-56
2021/12/31 08:13:32;;;;;;;6.88;2.63;;;12.80;99.90;;;;;;5081653;28;20127;-57
2021/12/31 08:15:58;;;;;;;6.20;2.45;;;12.80;99.90;;;;;;5081592;28;20076;-54
2021/12/31 08:18:25;;;;;;;8.23;2.97;;;12.70;99.90;;;;;;5082663;28;20062;-54
2021/12/31 08:20:52;;;;;;;6.55;3.05;;;12.60;99.90;;;;;;5076843;28;20050;-54
2021/12/31 08:23:19;;;;;;;3.72;2.30;;;12.50;99.90;;;;;;5077800;28;20131;-55
2021/12/31 08:25:46;;;;;;;4.88;2.17;;;12.50;99.90;;;;;;5079214;28;20067;-56
2021/12/31 08:28:13;;;;;;;4.53;2.03;;;12.50;99.90;;;;;;5080892;28;20043;-55
2021/12/31 08:30:39;;;;;;;4.90;2.08;;;12.50;99.90;;;;;;5082092;28;20492;-53
2021/12/31 08:33:06;;;;;;;4.68;2.65;;;12.50;99.90;;;;;;5077325;28;20052;-55
2021/12/31 08:35:34;;;;;;;6.88;2.90;;;12.50;99.90;;;;;;5077486;28;20091;-55
2021/12/31 08:38:03;;;;;;;4.35;2.10;;;12.50;99.90;;;;;;5076311;28;20078;-55
2021/12/31 08:40:30;;;;;;;5.90;2.70;;;12.40;99.90;;;;;;5076001;28;20044;-55
2021/12/31 08:42:56;;;;;;;7.55;2.53;;;12.40;99.90;;;;;;5076069;28;20052;-54
2021/12/31 08:45:30;;;;;;;7.93;2.63;;;12.40;99.90;;;;;;5076426;28;20203;-55
2021/12/31 08:47:58;;;;;;;8.63;2.85;;;12.40;99.90;;;;;;5076504;28;20121;-55
2021/12/31 08:50:24;;;;;;;8.82;2.75;;;12.40;99.90;;;;;;5076336;28;20083;-54
2021/12/31 08:52:51;;;;;;;6.78;2.58;;;12.40;99.90;;;;;;5075406;28;20048;-55
2021/12/31 08:55:18;;;;;;;6.72;2.53;;;12.50;99.90;;;;;;5076849;28;20688;-53
2021/12/31 08:57:45;;;;;;;5.05;2.35;;;12.50;99.90;;;;;;5076026;28;21527;-54
2021/12/31 09:00:12;;;;;;;7.40;2.25;;;12.50;99.90;;;;;;5075436;28;20048;-54
2021/12/31 09:02:40;;;;;;;5.93;2.47;;;12.40;99.90;;;;;;5075228;28;20056;-52
2021/12/31 09:05:07;;;;;;;5.20;2.40;;;12.50;99.90;;;;;;5075275;28;20048;-56
2021/12/31 09:07:34;;;;;;;6.07;2.55;;;12.50;99.90;;;;;;5075502;28;20044;-55
2021/12/31 09:10:01;;;;;;;3.65;1.98;;;12.50;99.90;;;;;;5075596;28;20040;-54
2021/12/31 09:12:27;;;;;;;4.35;1.80;;;12.50;99.90;;;;;;5076171;28;20577;-53
2021/12/31 09:14:54;;;;;;;4.57;1.80;;;12.60;99.90;;;;;;5075687;28;20438;-56
2021/12/31 09:17:22;;;;;;;5.97;3.17;;;12.60;99.90;;;;;;5076025;28;20078;-53
2021/12/31 09:19:50;;;;;;;4.80;2.42;;;12.70;99.90;;;;;;5077049;28;20902;-56
2021/12/31 09:22:16;;;;;;;5.03;2.17;;;12.70;99.90;;;;;;5077033;28;20105;-54
2021/12/31 09:24:43;;;;;;;3.20;1.60;;;12.80;99.90;;;;;;5076618;28;20575;-54
2021/12/31 09:27:10;;;;;;;4.38;1.75;;;12.80;99.90;;;;;;5076218;28;20121;-55
2021/12/31 09:29:37;;;;;;;3.25;1.73;;;12.80;99.90;;;;;;5074777;28;20108;-54
2021/12/31 09:32:04;;;;;;;4.80;1.80;;;12.80;99.90;;;;;;5075860;28;20126;-55
2021/12/31 09:34:31;;;;;;;4.68;1.92;;;12.80;99.90;;;;;;5071657;28;20056;-56
2021/12/31 09:36:57;;;;;;;4.45;2.75;;;12.90;99.90;;;;;;5076638;28;20079;-54
2021/12/31 09:39:24;;;;;;;4.60;1.73;;;13.00;99.90;;;;;;5075338;28;20154;-55
2021/12/31 09:41:51;;;;;;;4.45;1.90;;;13.00;99.90;;;;;;5074410;28;20079;-54
2021/12/31 09:44:21;;;;;;;6.45;2.03;;;13.00;99.90;;;;;;5075715;28;20086;-53
2021/12/31 09:46:48;;;;;;;5.03;2.00;;;13.00;99.90;;;;;;5073890;28;20044;-55
2021/12/31 09:49:15;;;;;;;5.55;2.08;;;13.00;99.90;;;;;;5075863;28;20139;-55
2021/12/31 09:51:42;;;;;;;5.03;1.80;;;13.00;99.90;;;;;;5074751;28;20098;-51
2021/12/31 09:54:10;;;;;;;4.30;1.75;;;13.10;99.90;;;;;;5076101;28;20132;-55
2021/12/31 09:56:39;;;;;;;3.88;2.10;;;13.10;99.90;;;;;;5077115;28;20150;-56
2021/12/31 09:59:07;;;;;;;3.83;1.60;;;13.10;99.90;;;;;;5076349;28;20055;-56
2021/12/31 10:01:47;;;;;;;3.03;1.50;;;13.10;99.90;;;;;;5077010;28;20044;-55
2021/12/31 10:04:14;;;;;;;3.15;1.75;;;13.10;99.90;;;;;;5076953;28;20052;-54
2021/12/31 10:07:08;;;;;;;4.88;1.80;;;13.20;99.90;;;;;;5079334;28;20662;-54
2021/12/31 10:09:35;;;;;;;4.25;1.67;;;13.20;99.90;;;;;;5078442;28;20293;-55
2021/12/31 10:12:08;;;;;;;5.15;1.83;;;13.20;99.90;;;;;;5078522;28;20083;-54
2021/12/31 10:14:36;;;;;;;4.75;2.13;;;13.20;99.90;;;;;;5077519;28;20048;-54
2021/12/31 10:17:06;;;;;;;5.05;1.70;;;13.20;99.90;;;;;;5078494;28;20040;-50
2021/12/31 10:19:33;;;;;;;3.00;1.85;;;13.20;99.90;;;;;;5077741;28;20093;-51
2021/12/31 10:22:00;;;;;;;3.80;1.50;;;13.30;99.90;;;;;;5079169;28;20048;-57
2021/12/31 10:24:35;;;;;;;2.95;1.38;;;13.40;99.90;;;;;;5078400;28;20075;-55
2021/12/31 10:27:14;;;;;;;2.40;1.17;;;13.40;99.90;;;;;;5077519;28;20576;-56
2021/12/31 10:30:00;;;;;;;3.50;1.88;;;13.40;99.90;;;;;;5077202;28;20083;-54
2021/12/31 10:32:28;;;;;;;3.35;1.58;;;13.40;99.90;;;;;;5073963;28;20135;-55
2021/12/31 10:35:15;;;;;;;5.18;1.60;;;13.50;99.90;;;;;;5075322;28;20074;-56
2021/12/31 10:37:50;;;;;;;3.55;1.42;;;13.60;99.90;;;;;;5077278;28;20860;-55
2021/12/31 10:40:40;;;;;;;2.70;1.23;;;13.60;99.90;;;;;;5077314;28;20496;-55
2021/12/31 10:43:17;;;;;;;2.63;1.20;;;13.70;99.90;;;;;;5074352;28;20063;-55
2021/12/31 10:45:53;;;;;;;3.05;1.50;;;13.70;99.90;;;;;;5076509;28;20101;-55
2021/12/31 10:48:20;;;;;;;2.60;1.55;;;13.70;99.90;;;;;;5074197;28;20401;-55
2021/12/31 10:50:50;;;;;;;2.35;1.30;;;13.70;99.90;;;;;;5078125;28;20131;-55
2021/12/31 10:53:34;;;;;;;2.53;1.58;;;13.80;99.90;;;;;;5073086;28;20078;-54
2021/12/31 10:56:12;;;;;;;2.35;1.30;;;13.80;99.90;;;;;;5078342;28;20131;-55
2021/12/31 10:58:41;;;;;;;4.45;1.55;;;13.90;99.90;;;;;;5077349;28;20391;-56
2021/12/31 11:01:10;;;;;;;3.25;1.70;;;13.90;99.90;;;;;;5076705;28;20135;-56
2021/12/31 11:03:38;;;;;;;4.13;1.33;;;14.00;99.90;;;;;;5077155;28;20068;-56
2021/12/31 11:06:06;;;;;;;4.72;2.15;;;14.00;99.90;;;;;;5077846;28;20480;-54
2021/12/31 11:08:33;;;;;;;2.05;1.60;;;14.00;99.90;;;;;;5075461;28;20133;-56
2021/12/31 11:11:04;;;;;;;2.78;1.35;;;14.00;99.90;;;;;;5076744;28;20044;-56
2021/12/31 11:13:31;;;;;;;3.00;1.40;;;14.10;99.90;;;;;;5076079;28;20155;-55
2021/12/31 11:15:59;;;;;;;3.03;2.28;;;14.10;99.90;;;;;;5077817;28;20084;-54
2021/12/31 11:18:26;;;;;;;2.30;1.60;;;14.10;99.90;;;;;;5076223;28;20121;-55
2021/12/31 11:20:57;;;;;;;3.80;1.65;;;14.20;99.90;;;;;;5077929;28;20058;-56
2021/12/31 11:23:29;;;;;;;4.15;1.50;;;14.20;99.90;;;;;;5076795;28;20414;-54
2021/12/31 11:26:02;;;;;;;5.00;1.45;;;14.30;99.90;;;;;;5076448;28;20135;-56
2021/12/31 11:28:29;;;;;;;2.38;1.30;;;14.30;99.90;;;;;;5074755;28;20122;-52
2021/12/31 11:31:17;;;;;;;4.50;1.70;;;14.40;99.90;;;;;;5077016;28;20051;-57
2021/12/31 11:33:45;;;;;;;2.92;1.60;;;14.40;99.90;;;;;;5077207;28;20040;-56
2021/12/31 11:36:12;;;;;;;3.28;1.50;;;14.50;99.90;;;;;;5078505;28;20078;-54
2021/12/31 11:38:40;;;;;;;3.15;1.45;;;14.50;99.90;;;;;;5077193;28;20048;-55
2021/12/31 11:41:18;;;;;;;3.13;1.65;;;14.60;99.90;;;;;;5075493;28;20056;-55
2021/12/31 11:44:02;;;;;;;3.50;1.60;;;14.60;99.90;;;;;;5058625;28;20911;-57
2021/12/31 11:46:30;;;;;;;5.05;2.00;;;14.70;99.90;;;;;;5074976;28;20189;-55
2021/12/31 11:48:57;;;;;;;4.15;1.70;;;14.70;99.90;;;;;;5074778;28;20097;-56
2021/12/31 11:51:33;;;;;;;4.30;1.77;;;14.80;99.90;;;;;;5077973;28;20155;-54
2021/12/31 11:54:00;;;;;;;5.78;2.20;;;14.80;99.90;;;;;;5076582;28;20110;-54
2021/12/31 11:56:45;;;;;;;3.80;1.80;;;14.90;99.90;;;;;;5076014;28;21064;-56
2021/12/31 11:59:19;;;;;;;3.47;1.70;;;14.90;99.90;;;;;;5073387;28;20044;-57
2021/12/31 12:01:48;;;;;;;3.63;1.50;;;14.80;99.90;;;;;;5075741;28;20060;-56
2021/12/31 12:04:36;;;;;;;5.03;1.90;;;14.70;99.90;;;;;;5077997;28;20040;-55
2021/12/31 12:07:16;;;;;;;3.58;1.70;;;14.60;99.90;;;;;;5074762;28;20449;-56
2021/12/31 12:09:42;;;;;;;2.55;1.45;;;14.60;99.90;;;;;;5074579;28;20131;-57
2021/12/31 12:12:16;;;;;;;3.00;1.52;;;14.60;99.90;;;;;;5077316;28;20048;-56
2021/12/31 12:14:49;;;;;;;4.15;1.50;;;14.70;99.90;;;;;;5076457;28;20127;-57
2021/12/31 12:17:43;;;;;;;3.08;1.83;;;14.80;99.90;;;;;;5075162;28;20151;-55
2021/12/31 12:20:13;;;;;;;1.77;1.17;;;14.90;99.90;;;;;;5075837;28;20578;-55
2021/12/31 12:22:40;;;;;;;3.47;1.50;;;15.10;99.90;;;;;;5076691;28;20055;-56
2021/12/31 12:25:11;;;;;;;2.58;1.35;;;15.20;99.90;;;;;;5075675;28;20510;-54
2021/12/31 12:27:38;;;;;;;3.38;1.98;;;15.20;99.90;;;;;;5075587;28;20391;-55
2021/12/31 12:30:10;;;;;;;2.88;1.50;;;15.30;99.90;;;;;;5075475;28;20467;-56
2021/12/31 12:32:50;;;;;;;3.08;1.65;;;15.40;99.90;;;;;;5069159;28;20135;-55
2021/12/31 12:35:17;;;;;;;3.85;1.65;;;15.40;99.90;;;;;;5074534;28;20052;-55
2021/12/31 12:38:02;;;;;;;5.70;2.60;;;15.60;99.90;;;;;;5076763;28;20167;-56
2021/12/31 12:40:51;;;;;;;2.72;1.50;;;15.60;99.90;;;;;;5075149;28;20253;-56
2021/12/31 12:43:21;;;;;;;2.53;1.00;;;15.70;99.90;;;;;;5076145;28;20291;-54
2021/12/31 12:45:57;;;;;;;2.70;1.38;;;15.80;99.90;;;;;;5076492;28;20160;-53
2021/12/31 12:48:38;;;;;;;3.67;1.38;;;16.10;99.90;;;;;;5076827;28;20048;-55
2021/12/31 12:51:06;;;;;;;2.00;1.00;;;16.30;99.90;;;;;;5075817;28;20079;-55
2021/12/31 12:53:35;;;;;;;2.45;1.27;;;16.50;99.90;;;;;;5076057;28;20127;-55